createdAt,value
2023-05-05T00:00:25.913Z,29.61
2023-05-05T00:01:25.931Z,29.58
2023-05-05T00:02:25.992Z,29.63
2023-05-05T00:03:26.090Z,29.61
2023-05-05T00:04:26.049Z,29.63
2023-05-05T00:05:26.083Z,29.62
2023-05-05T00:06:26.123Z,29.61
2023-05-05T00:07:26.163Z,29.63
2023-05-05T00:08:26.234Z,29.59
2023-05-05T00:09:26.257Z,29.55
2023-05-05T00:10:26.288Z,29.55
2023-05-05T00:11:26.349Z,29.53
2023-05-05T00:12:26.356Z,29.57
2023-05-05T00:13:26.390Z,29.57
2023-05-05T00:14:26.463Z,29.54
2023-05-05T00:15:26.498Z,29.59
2023-05-05T00:16:26.571Z,29.57
2023-05-05T00:17:26.570Z,29.54
2023-05-05T00:18:26.586Z,29.54
2023-05-05T00:19:26.636Z,29.55
2023-05-05T00:20:26.706Z,29.55
2023-05-05T00:21:26.714Z,29.51
2023-05-05T00:22:26.788Z,29.51
2023-05-05T00:23:26.796Z,29.53
2023-05-05T00:24:26.846Z,29.54
2023-05-05T00:25:26.869Z,29.50
2023-05-05T00:26:26.924Z,29.50
2023-05-05T00:27:26.934Z,29.48
2023-05-05T00:28:27.003Z,29.49
2023-05-05T00:29:27.010Z,29.48
2023-05-05T00:30:27.079Z,29.51
2023-05-05T00:31:27.208Z,29.51
2023-05-05T00:32:27.199Z,29.53
2023-05-05T00:33:27.190Z,29.53
2023-05-05T00:34:27.267Z,29.50
2023-05-05T00:35:27.309Z,29.53
2023-05-05T00:36:27.359Z,29.50
2023-05-05T00:37:27.353Z,29.56
2023-05-05T00:38:27.414Z,29.53
2023-05-05T00:39:27.467Z,29.58
2023-05-05T00:40:27.544Z,29.54
2023-05-05T00:41:27.531Z,29.52
2023-05-05T00:42:27.605Z,29.56
2023-05-05T00:43:27.654Z,29.58
2023-05-05T00:44:27.671Z,29.63
2023-05-05T00:45:27.706Z,29.63
2023-05-05T00:46:27.906Z,29.60
2023-05-05T00:47:27.864Z,29.64
2023-05-05T00:48:27.844Z,29.61
2023-05-05T00:49:27.968Z,29.64
2023-05-05T00:50:27.962Z,29.64
2023-05-05T00:51:28.000Z,29.63
2023-05-05T00:52:28.035Z,29.66
2023-05-05T00:53:28.083Z,29.64
2023-05-05T00:54:28.157Z,29.69
2023-05-05T00:55:28.199Z,29.69
2023-05-05T00:56:28.238Z,29.70
2023-05-05T00:57:28.314Z,29.67
2023-05-05T00:58:28.350Z,29.74
2023-05-05T00:59:28.439Z,29.77
2023-05-05T01:00:28.450Z,29.74
2023-05-05T01:01:28.570Z,29.72
2023-05-05T01:02:28.649Z,29.77
2023-05-05T01:03:28.733Z,29.72
2023-05-05T01:04:28.673Z,29.72
2023-05-05T01:05:28.738Z,29.74
2023-05-05T01:06:28.779Z,29.82
2023-05-05T01:07:28.825Z,29.78
2023-05-05T01:08:28.885Z,29.78
2023-05-05T01:09:28.984Z,29.78
2023-05-05T01:10:28.983Z,29.80
2023-05-05T01:11:29.059Z,29.80
2023-05-05T01:12:29.107Z,29.78
2023-05-05T01:13:29.158Z,29.78
2023-05-05T01:14:29.194Z,29.80
2023-05-05T01:15:29.221Z,29.85
2023-05-05T01:16:29.380Z,29.83
2023-05-05T01:17:29.363Z,29.85
2023-05-05T01:18:29.392Z,29.86
2023-05-05T01:19:29.460Z,29.86
2023-05-05T01:20:29.508Z,29.84
2023-05-05T01:21:29.566Z,29.87
2023-05-05T01:22:29.593Z,29.87
2023-05-05T01:23:29.633Z,29.86
2023-05-05T01:24:29.663Z,29.88
2023-05-05T01:25:29.708Z,29.91
2023-05-05T01:26:29.758Z,29.87
2023-05-05T01:27:29.771Z,29.88
2023-05-05T01:28:29.768Z,29.90
2023-05-05T01:29:29.838Z,29.88
2023-05-05T01:30:29.854Z,29.89
2023-05-05T01:31:29.946Z,29.92
2023-05-05T01:32:30.004Z,29.88
2023-05-05T01:33:29.983Z,29.87
2023-05-05T01:34:30.079Z,29.88
2023-05-05T01:35:30.120Z,29.90
2023-05-05T01:36:30.113Z,29.91
2023-05-05T01:37:30.136Z,29.90
2023-05-05T01:38:30.146Z,29.90
2023-05-05T01:39:30.254Z,29.92
2023-05-05T01:40:30.254Z,29.88
2023-05-05T01:41:30.300Z,29.92
2023-05-05T01:42:30.340Z,29.92
2023-05-05T01:43:30.352Z,29.95
2023-05-05T01:44:30.428Z,29.96
2023-05-05T01:45:30.502Z,29.92
2023-05-05T01:46:30.493Z,29.96
2023-05-05T01:47:30.559Z,29.95
2023-05-05T01:48:30.568Z,29.91
2023-05-05T01:49:30.547Z,29.92
2023-05-05T01:50:30.596Z,29.96
2023-05-05T01:51:30.622Z,29.93
2023-05-05T01:52:30.586Z,29.99
2023-05-05T01:53:30.631Z,29.93
2023-05-05T01:54:30.620Z,29.93
2023-05-05T01:55:30.664Z,29.96
2023-05-05T01:56:30.741Z,29.94
2023-05-05T01:57:30.685Z,29.97
2023-05-05T01:58:30.676Z,29.95
2023-05-05T01:59:30.677Z,29.99
2023-05-05T02:00:30.738Z,29.96
2023-05-05T02:01:30.758Z,29.98
2023-05-05T02:02:30.787Z,29.98
2023-05-05T02:03:30.786Z,29.98
2023-05-05T02:04:30.717Z,29.99
2023-05-05T02:05:30.742Z,29.99
2023-05-05T02:06:30.767Z,29.98
2023-05-05T02:07:30.729Z,29.99
2023-05-05T02:08:30.756Z,30.05
2023-05-05T02:09:30.769Z,30.00
2023-05-05T02:10:30.758Z,29.99
2023-05-05T02:11:30.773Z,29.99
2023-05-05T02:12:30.846Z,29.97
2023-05-05T02:13:30.782Z,29.95
2023-05-05T02:14:30.812Z,30.01
2023-05-05T02:15:30.865Z,30.00
2023-05-05T02:16:30.802Z,30.03
2023-05-05T02:17:30.862Z,30.01
2023-05-05T02:18:30.822Z,30.02
2023-05-05T02:19:30.826Z,30.02
2023-05-05T02:20:30.907Z,30.04
2023-05-05T02:21:30.868Z,30.03
2023-05-05T02:22:30.860Z,30.07
2023-05-05T02:23:30.915Z,30.04
2023-05-05T02:24:31.016Z,30.10
2023-05-05T02:25:30.875Z,30.07
2023-05-05T02:26:30.884Z,30.14
2023-05-05T02:27:30.877Z,30.10
2023-05-05T02:28:30.837Z,30.13
2023-05-05T02:29:30.868Z,30.11
2023-05-05T02:30:30.838Z,30.09
2023-05-05T02:31:30.907Z,30.12
2023-05-05T02:32:30.845Z,30.12
2023-05-05T02:33:30.816Z,30.15
2023-05-05T02:34:30.824Z,30.12
2023-05-05T02:35:31.504Z,30.18
2023-05-05T02:36:30.791Z,30.18
2023-05-05T02:37:30.787Z,30.16
2023-05-05T02:38:30.804Z,30.21
2023-05-05T02:39:30.780Z,30.13
2023-05-05T02:40:30.800Z,30.20
2023-05-05T02:41:30.837Z,30.19
2023-05-05T02:42:30.814Z,30.23
2023-05-05T02:43:30.817Z,30.21
2023-05-05T02:44:30.853Z,30.20
2023-05-05T02:45:30.893Z,30.23
2023-05-05T02:46:30.917Z,30.21
2023-05-05T02:47:30.954Z,30.24
2023-05-05T02:48:30.898Z,30.24
2023-05-05T02:49:30.905Z,30.21
2023-05-05T02:50:30.945Z,30.25
2023-05-05T02:51:30.932Z,30.21
2023-05-05T02:52:30.918Z,30.20
2023-05-05T02:53:30.925Z,30.22
2023-05-05T02:54:30.965Z,30.24
2023-05-05T02:55:30.960Z,30.28
2023-05-05T02:56:30.967Z,30.25
2023-05-05T02:57:31.003Z,30.28
2023-05-05T02:58:31.035Z,30.26
2023-05-05T02:59:31.021Z,30.25
2023-05-05T03:00:31.078Z,30.25
2023-05-05T03:01:31.073Z,30.29
2023-05-05T03:02:31.189Z,30.33
2023-05-05T03:03:31.082Z,30.27
2023-05-05T03:04:31.057Z,30.29
2023-05-05T03:05:31.094Z,30.35
2023-05-05T03:06:31.144Z,30.34
2023-05-05T03:07:31.100Z,30.33
2023-05-05T03:08:31.098Z,30.34
2023-05-05T03:09:31.114Z,30.35
2023-05-05T03:10:31.157Z,30.33
2023-05-05T03:11:31.146Z,30.34
2023-05-05T03:12:31.183Z,30.34
2023-05-05T03:13:31.154Z,30.33
2023-05-05T03:14:33.297Z,30.33
2023-05-05T03:15:31.199Z,30.34
2023-05-05T03:16:31.169Z,30.30
2023-05-05T03:17:31.203Z,30.34
2023-05-05T03:18:31.215Z,30.30
2023-05-05T03:19:31.234Z,30.29
2023-05-05T03:20:31.252Z,30.30
2023-05-05T03:21:31.245Z,30.30
2023-05-05T03:22:31.275Z,30.28
2023-05-05T03:23:31.268Z,30.30
2023-05-05T03:24:31.325Z,30.25
2023-05-05T03:25:32.105Z,30.30
2023-05-05T03:26:31.317Z,30.29
2023-05-05T03:27:31.364Z,30.31
2023-05-05T03:28:31.329Z,30.35
2023-05-05T03:29:31.369Z,30.30
2023-05-05T03:30:31.371Z,30.33
2023-05-05T03:31:31.408Z,30.28
2023-05-05T03:32:31.411Z,30.26
2023-05-05T03:33:31.414Z,30.25
2023-05-05T03:34:31.417Z,30.25
2023-05-05T03:35:31.413Z,30.28
2023-05-05T03:36:31.436Z,30.26
2023-05-05T03:37:31.437Z,30.27
2023-05-05T03:38:31.416Z,30.29
2023-05-05T03:39:31.455Z,30.30
2023-05-05T03:40:43.030Z,30.28
2023-05-05T03:41:32.462Z,30.39
2023-05-05T03:42:31.477Z,30.35
2023-05-05T03:43:31.451Z,30.38
2023-05-05T03:44:31.465Z,30.40
2023-05-05T03:45:31.474Z,30.36
2023-05-05T03:46:31.438Z,30.32
2023-05-05T03:47:31.472Z,30.35
2023-05-05T03:48:31.417Z,30.36
2023-05-05T03:49:31.433Z,30.39
2023-05-05T03:50:31.413Z,30.39
2023-05-05T03:51:31.444Z,30.40
2023-05-05T03:52:31.375Z,30.38
2023-05-05T03:53:31.371Z,30.44
2023-05-05T03:54:31.373Z,30.45
2023-05-05T03:55:31.384Z,30.45
2023-05-05T03:56:31.391Z,30.44
2023-05-05T03:57:31.369Z,30.46
2023-05-05T03:58:31.344Z,30.47
2023-05-05T03:59:31.334Z,30.45
2023-05-05T04:00:31.335Z,30.47
2023-05-05T04:01:31.324Z,30.49
2023-05-05T04:02:31.411Z,30.47
2023-05-05T04:03:31.565Z,30.46
2023-05-05T04:04:31.402Z,30.48
2023-05-05T04:05:31.304Z,30.47
2023-05-05T04:06:31.285Z,30.48
2023-05-05T04:07:31.271Z,30.48
2023-05-05T04:08:31.286Z,30.47
2023-05-05T04:09:31.323Z,30.40
2023-05-05T04:10:31.354Z,30.45
2023-05-05T04:11:31.365Z,30.42
2023-05-05T04:12:31.378Z,30.41
2023-05-05T04:13:31.343Z,30.43
2023-05-05T04:14:31.330Z,30.47
2023-05-05T04:15:31.385Z,30.43
2023-05-05T04:16:31.406Z,30.40
2023-05-05T04:17:31.417Z,30.40
2023-05-05T04:18:31.419Z,30.40
2023-05-05T04:19:31.435Z,30.44
2023-05-05T04:20:31.466Z,30.46
2023-05-05T04:21:31.437Z,30.41
2023-05-05T04:22:31.450Z,30.44
2023-05-05T04:23:31.469Z,30.44
2023-05-05T04:24:31.465Z,30.46
2023-05-05T04:25:31.514Z,30.39
2023-05-05T04:26:33.067Z,30.40
2023-05-05T04:27:31.504Z,30.38
2023-05-05T04:28:31.497Z,30.41
2023-05-05T04:29:31.542Z,30.43
2023-05-05T04:30:31.519Z,30.41
2023-05-05T04:31:31.589Z,30.39
2023-05-05T04:32:31.575Z,30.44
2023-05-05T04:33:31.539Z,30.43
2023-05-05T04:34:31.554Z,30.36
2023-05-05T04:35:31.554Z,30.42
2023-05-05T04:36:31.607Z,30.38
2023-05-05T04:37:31.583Z,30.43
2023-05-05T04:38:31.659Z,30.46
2023-05-05T04:39:31.642Z,30.42
2023-05-05T04:40:31.632Z,30.43
2023-05-05T04:41:31.663Z,30.42
2023-05-05T04:42:31.668Z,30.47
2023-05-05T04:43:31.669Z,30.47
2023-05-05T04:44:31.733Z,30.45
2023-05-05T04:45:31.733Z,30.39
2023-05-05T04:46:31.783Z,30.43
2023-05-05T04:47:31.845Z,30.44
2023-05-05T04:48:31.792Z,30.46
2023-05-05T04:49:31.776Z,30.47
2023-05-05T04:50:31.776Z,30.47
2023-05-05T04:51:31.835Z,30.48
2023-05-05T04:52:31.826Z,30.47
2023-05-05T04:53:31.807Z,30.51
2023-05-05T04:54:31.841Z,30.51
2023-05-05T04:55:31.833Z,30.52
2023-05-05T04:56:31.889Z,30.52
2023-05-05T04:57:31.893Z,30.51
2023-05-05T04:58:31.876Z,30.46
2023-05-05T04:59:31.858Z,30.50
2023-05-05T05:00:31.881Z,30.48
2023-05-05T05:01:31.929Z,30.43
2023-05-05T05:02:31.962Z,30.41
2023-05-05T05:03:32.143Z,30.42
2023-05-05T05:04:31.912Z,30.39
2023-05-05T05:05:31.958Z,30.39
2023-05-05T05:06:31.969Z,30.38
2023-05-05T05:07:31.967Z,30.42
2023-05-05T05:08:31.956Z,30.41
2023-05-05T05:09:31.998Z,30.39
2023-05-05T05:10:31.986Z,30.38
2023-05-05T05:11:32.019Z,30.36
2023-05-05T05:12:32.097Z,30.39
2023-05-05T05:13:32.039Z,30.43
2023-05-05T05:14:32.017Z,30.39
2023-05-05T05:15:32.049Z,30.41
2023-05-05T05:16:32.062Z,30.39
2023-05-05T05:17:32.090Z,30.36
2023-05-05T05:18:32.060Z,30.45
2023-05-05T05:19:32.072Z,30.40
2023-05-05T05:20:32.060Z,30.38
2023-05-05T05:21:32.056Z,30.45
2023-05-05T05:22:32.074Z,30.38
2023-05-05T05:23:32.092Z,30.38
2023-05-05T05:24:32.083Z,30.39
2023-05-05T05:25:32.106Z,30.38
2023-05-05T05:26:32.144Z,30.34
2023-05-05T05:27:33.055Z,30.34
2023-05-05T05:28:32.154Z,30.36
2023-05-05T05:29:32.152Z,30.38
2023-05-05T05:30:32.154Z,30.33
2023-05-05T05:31:32.174Z,30.36
2023-05-05T05:32:33.179Z,30.39
2023-05-05T05:33:32.210Z,30.34
2023-05-05T05:34:32.194Z,30.38
2023-05-05T05:35:32.200Z,30.35
2023-05-05T05:36:32.551Z,30.38
2023-05-05T05:37:32.281Z,30.43
2023-05-05T05:38:32.295Z,30.61
2023-05-05T05:39:32.268Z,30.62
2023-05-05T05:40:32.320Z,30.77
2023-05-05T05:41:32.376Z,31.13
2023-05-05T05:42:32.309Z,31.72
2023-05-05T05:43:32.312Z,31.11
2023-05-05T05:44:32.356Z,31.16
2023-05-05T05:45:32.410Z,31.27
2023-05-05T05:46:32.482Z,31.44
2023-05-05T05:47:32.525Z,31.23
2023-05-05T05:48:32.523Z,31.44
2023-05-05T05:49:32.590Z,31.38
2023-05-05T05:50:32.620Z,31.86
2023-05-05T05:51:32.682Z,32.95
2023-05-05T05:52:32.697Z,32.48
2023-05-05T05:53:32.767Z,32.40
2023-05-05T05:54:32.773Z,33.31
2023-05-05T05:55:32.893Z,32.97
2023-05-05T05:56:32.858Z,32.63
2023-05-05T05:57:32.916Z,32.26
2023-05-05T05:58:32.964Z,32.02
2023-05-05T05:59:32.989Z,31.92
2023-05-05T06:00:33.012Z,31.84
2023-05-05T06:01:33.088Z,31.81
2023-05-05T06:02:33.250Z,31.81
2023-05-05T06:03:33.343Z,31.83
2023-05-05T06:04:33.363Z,31.86
2023-05-05T06:05:33.268Z,31.82
2023-05-05T06:06:33.377Z,31.81
2023-05-05T06:07:33.385Z,31.76
2023-05-05T06:08:33.445Z,31.84
2023-05-05T06:09:33.496Z,31.86
2023-05-05T06:10:34.007Z,31.83
2023-05-05T06:11:33.661Z,31.80
2023-05-05T06:12:33.715Z,31.81
2023-05-05T06:13:33.697Z,31.81
2023-05-05T06:14:33.759Z,31.84
2023-05-05T06:15:33.810Z,31.82
2023-05-05T06:16:33.990Z,31.78
2023-05-05T06:17:33.931Z,31.79
2023-05-05T06:18:34.040Z,31.78
2023-05-05T06:19:34.066Z,31.74
2023-05-05T06:20:34.092Z,31.67
2023-05-05T06:21:34.156Z,31.71
2023-05-05T06:22:34.204Z,31.75
2023-05-05T06:23:34.264Z,31.74
2023-05-05T06:24:34.289Z,31.75
2023-05-05T06:25:34.327Z,31.78
2023-05-05T06:26:34.572Z,31.67
2023-05-05T06:27:34.454Z,31.64
2023-05-05T06:28:34.461Z,31.65
2023-05-05T06:29:34.506Z,31.59
2023-05-05T06:30:34.571Z,31.55
2023-05-05T06:31:34.693Z,31.54
2023-05-05T06:32:34.656Z,31.51
2023-05-05T06:33:34.674Z,31.49
2023-05-05T06:34:34.725Z,31.45
2023-05-05T06:35:34.770Z,31.39
2023-05-05T06:36:34.837Z,31.35
2023-05-05T06:37:34.777Z,31.32
2023-05-05T06:38:34.792Z,31.36
2023-05-05T06:39:34.795Z,31.28
2023-05-05T06:40:34.813Z,31.32
2023-05-05T06:41:34.857Z,31.29
2023-05-05T06:42:34.853Z,31.22
2023-05-05T06:43:34.845Z,31.18
2023-05-05T06:44:34.856Z,31.21
2023-05-05T06:45:34.921Z,31.13
2023-05-05T06:46:34.945Z,31.13
2023-05-05T06:47:34.952Z,31.11
2023-05-05T06:48:34.934Z,31.54
2023-05-05T06:49:34.896Z,32.35
2023-05-05T06:50:35.092Z,32.00
2023-05-05T06:51:34.993Z,32.11
2023-05-05T06:52:34.942Z,32.17
2023-05-05T06:53:34.990Z,32.25
2023-05-05T06:54:35.067Z,33.11
2023-05-05T06:55:35.106Z,32.59
2023-05-05T06:56:35.194Z,32.75
2023-05-05T06:57:35.205Z,32.59
2023-05-05T06:58:35.230Z,32.56
2023-05-05T06:59:35.286Z,32.61
2023-05-05T07:00:35.351Z,32.47
2023-05-05T07:01:35.344Z,32.42
2023-05-05T07:02:35.438Z,33.19
2023-05-05T07:03:35.457Z,32.38
2023-05-05T07:04:35.428Z,32.05
2023-05-05T07:05:35.472Z,31.92
2023-05-05T07:06:35.678Z,31.16
2023-05-05T07:07:35.512Z,31.07
2023-05-05T07:08:35.520Z,30.82
2023-05-05T07:09:35.548Z,31.02
2023-05-05T07:10:35.605Z,30.90
2023-05-05T07:11:35.633Z,30.47
2023-05-05T07:12:35.684Z,30.43
2023-05-05T07:13:35.725Z,30.28
2023-05-05T07:14:35.721Z,30.34
2023-05-05T07:15:35.783Z,30.39
2023-05-05T07:16:35.846Z,30.17
2023-05-05T07:17:35.818Z,30.47
2023-05-05T07:18:35.864Z,30.35
2023-05-05T07:19:35.853Z,30.07
2023-05-05T07:20:35.932Z,29.98
2023-05-05T07:21:35.931Z,29.75
2023-05-05T07:22:36.058Z,29.74
2023-05-05T07:23:35.988Z,29.64
2023-05-05T07:24:36.066Z,29.66
2023-05-05T07:25:36.046Z,30.11
2023-05-05T07:26:36.121Z,30.11
2023-05-05T07:27:36.136Z,29.99
2023-05-05T07:28:36.169Z,30.04
2023-05-05T07:29:36.243Z,29.48
2023-05-05T07:30:36.205Z,29.58
2023-05-05T07:31:36.318Z,29.62
2023-05-05T07:32:36.262Z,29.38
2023-05-05T07:33:36.280Z,29.39
2023-05-05T07:34:36.295Z,29.59
2023-05-05T07:35:36.303Z,29.99
2023-05-05T07:36:36.420Z,30.14
2023-05-05T07:37:36.289Z,29.63
2023-05-05T07:38:36.335Z,29.79
2023-05-05T07:39:36.255Z,29.63
2023-05-05T07:40:36.251Z,29.53
2023-05-05T07:41:36.258Z,29.18
2023-05-05T07:42:36.586Z,29.36
2023-05-05T07:43:36.201Z,29.36
2023-05-05T07:44:36.270Z,29.43
2023-05-05T07:45:36.243Z,29.53
2023-05-05T07:46:36.475Z,29.26
2023-05-05T07:47:36.661Z,29.76
2023-05-05T07:48:36.193Z,30.58
2023-05-05T07:49:36.241Z,30.85
2023-05-05T07:50:36.220Z,30.77
2023-05-05T07:51:36.159Z,30.49
2023-05-05T07:52:46.912Z,30.33
2023-05-05T07:53:37.177Z,30.38
2023-05-05T07:54:36.236Z,30.01
2023-05-05T07:55:36.144Z,29.88
2023-05-05T07:56:36.184Z,29.66
2023-05-05T07:57:36.153Z,29.48
2023-05-05T07:58:36.157Z,29.33
2023-05-05T07:59:36.131Z,29.16
2023-05-05T08:00:36.156Z,29.04
2023-05-05T08:01:36.127Z,29.06
2023-05-05T08:02:36.217Z,28.88
2023-05-05T08:03:36.272Z,28.68
2023-05-05T08:04:36.209Z,28.71
2023-05-05T08:05:36.065Z,28.60
2023-05-05T08:06:36.066Z,28.50
2023-05-05T08:07:36.071Z,28.41
2023-05-05T08:08:36.073Z,28.36
2023-05-05T08:09:36.058Z,28.24
2023-05-05T08:10:36.047Z,28.23
2023-05-05T08:11:36.056Z,28.21
2023-05-05T08:12:36.119Z,28.28
2023-05-05T08:13:36.067Z,28.29
2023-05-05T08:14:36.099Z,28.24
2023-05-05T08:15:36.109Z,28.18
2023-05-05T08:16:36.339Z,28.14
2023-05-05T08:17:36.279Z,28.13
2023-05-05T08:18:36.340Z,28.13
2023-05-05T08:19:36.384Z,28.15
2023-05-05T08:20:36.435Z,28.02
2023-05-05T08:21:36.470Z,27.95
2023-05-05T08:22:36.565Z,27.86
2023-05-05T08:23:36.580Z,27.89
2023-05-05T08:24:36.641Z,27.98
2023-05-05T08:25:36.701Z,27.96
2023-05-05T08:26:36.827Z,28.01
2023-05-05T08:27:36.792Z,27.97
2023-05-05T08:28:36.820Z,28.04
2023-05-05T08:29:36.918Z,27.95
2023-05-05T08:30:36.914Z,27.96
2023-05-05T08:31:36.999Z,27.85
2023-05-05T08:32:37.055Z,27.79
2023-05-05T08:33:37.050Z,27.85
2023-05-05T08:34:37.135Z,27.98
2023-05-05T08:35:37.272Z,27.94
2023-05-05T08:36:37.228Z,28.86
2023-05-05T08:37:37.641Z,28.57
2023-05-05T08:38:37.345Z,28.56
2023-05-05T08:39:37.412Z,28.31
2023-05-05T08:40:37.420Z,28.34
2023-05-05T08:41:37.503Z,28.23
2023-05-05T08:42:39.150Z,28.39
2023-05-05T08:43:37.582Z,28.48
2023-05-05T08:44:37.625Z,28.62
2023-05-05T08:45:37.682Z,29.17
2023-05-05T08:46:37.705Z,30.66
2023-05-05T08:47:37.824Z,29.95
2023-05-05T08:48:37.777Z,29.70
2023-05-05T08:49:37.839Z,29.80
2023-05-05T08:50:37.875Z,29.64
2023-05-05T08:51:37.880Z,29.99
2023-05-05T08:52:38.189Z,30.18
2023-05-05T08:53:37.934Z,29.82
2023-05-05T08:54:37.998Z,29.38
2023-05-05T08:55:37.983Z,29.25
2023-05-05T08:56:38.026Z,29.03
2023-05-05T08:57:38.055Z,29.12
2023-05-05T08:58:38.138Z,29.19
2023-05-05T08:59:38.061Z,29.29
2023-05-05T09:00:38.054Z,29.53
2023-05-05T09:01:38.194Z,29.58
2023-05-05T09:02:38.220Z,29.59
2023-05-05T09:03:38.265Z,29.69
2023-05-05T09:04:38.251Z,29.97
2023-05-05T09:05:38.287Z,30.16
2023-05-05T09:06:38.387Z,29.97
2023-05-05T09:07:38.604Z,30.41
2023-05-05T09:08:38.454Z,30.29
2023-05-05T09:09:38.491Z,30.35
2023-05-05T09:10:38.498Z,30.39
2023-05-05T09:11:38.561Z,30.34
2023-05-05T09:12:38.614Z,30.34
2023-05-05T09:13:38.594Z,30.32
2023-05-05T09:14:38.631Z,30.31
2023-05-05T09:15:38.620Z,30.39
2023-05-05T09:16:38.759Z,30.64
2023-05-05T09:17:38.747Z,30.52
2023-05-05T09:18:38.682Z,30.67
2023-05-05T09:19:38.696Z,30.60
2023-05-05T09:20:38.672Z,30.62
2023-05-05T09:21:38.724Z,30.70
2023-05-05T09:22:39.156Z,30.82
2023-05-05T09:23:38.716Z,30.91
2023-05-05T09:24:38.788Z,30.83
2023-05-05T09:25:38.822Z,30.79
2023-05-05T09:26:38.803Z,30.88
2023-05-05T09:27:39.136Z,30.92
2023-05-05T09:28:38.865Z,30.91
2023-05-05T09:29:38.830Z,31.10
2023-05-05T09:30:38.936Z,31.09
2023-05-05T09:31:38.962Z,31.24
2023-05-05T09:32:39.011Z,31.49
2023-05-05T09:33:39.020Z,31.44
2023-05-05T09:34:39.074Z,31.32
2023-05-05T09:35:39.668Z,31.46
2023-05-05T09:36:39.185Z,31.39
2023-05-05T09:37:39.649Z,31.40
2023-05-05T09:38:39.278Z,31.53
2023-05-05T09:39:39.345Z,31.59
2023-05-05T09:40:39.393Z,31.58
2023-05-05T09:41:39.532Z,31.31
2023-05-05T09:42:39.629Z,31.15
2023-05-05T09:43:39.524Z,31.25
2023-05-05T09:44:39.508Z,31.19
2023-05-05T09:45:39.544Z,31.16
2023-05-05T09:46:39.704Z,31.09
2023-05-05T09:47:39.654Z,31.12
2023-05-05T09:48:39.616Z,31.02
2023-05-05T09:49:39.736Z,31.05
2023-05-05T09:50:39.607Z,31.12
2023-05-05T09:51:39.608Z,31.18
2023-05-05T09:52:39.673Z,31.10
2023-05-05T09:53:39.680Z,31.08
2023-05-05T09:54:39.691Z,31.14
2023-05-05T09:55:39.703Z,31.13
2023-05-05T09:56:39.753Z,31.12
2023-05-05T09:57:40.171Z,31.11
2023-05-05T09:58:39.829Z,31.11
2023-05-05T09:59:39.802Z,31.15
2023-05-05T10:00:39.858Z,31.08
2023-05-05T10:01:39.875Z,31.09
2023-05-05T10:02:39.981Z,31.09
2023-05-05T10:03:39.913Z,31.01
2023-05-05T10:04:39.962Z,31.02
2023-05-05T10:05:40.003Z,31.05
2023-05-05T10:06:40.024Z,31.07
2023-05-05T10:07:40.136Z,30.99
2023-05-05T10:08:40.077Z,31.07
2023-05-05T10:09:40.081Z,31.07
2023-05-05T10:10:40.099Z,31.08
2023-05-05T10:11:40.140Z,31.08
2023-05-05T10:12:40.286Z,31.05
2023-05-05T10:13:40.212Z,31.02
2023-05-05T10:14:40.269Z,31.05
2023-05-05T10:15:40.282Z,31.08
2023-05-05T10:16:40.417Z,31.01
2023-05-05T10:17:43.960Z,31.01
2023-05-05T10:18:41.520Z,31.02
2023-05-05T10:19:40.393Z,31.04
2023-05-05T10:20:40.325Z,31.02
2023-05-05T10:21:41.956Z,31.01
2023-05-05T10:22:40.434Z,31.01
2023-05-05T10:23:40.383Z,31.01
2023-05-05T10:24:40.424Z,31.03
2023-05-05T10:25:40.418Z,31.02
2023-05-05T10:26:40.509Z,31.01
2023-05-05T10:27:40.530Z,31.03
2023-05-05T10:28:40.556Z,31.04
2023-05-05T10:29:40.639Z,30.99
2023-05-05T10:30:40.680Z,31.03
2023-05-05T10:31:40.696Z,31.02
2023-05-05T10:32:53.951Z,31.06
2023-05-05T10:33:42.363Z,31.07
2023-05-05T10:34:40.842Z,31.11
2023-05-05T10:35:40.694Z,31.91
2023-05-05T10:36:40.685Z,33.14
2023-05-05T10:37:40.680Z,32.40
2023-05-05T10:38:40.757Z,34.13
2023-05-05T10:39:40.711Z,33.05
2023-05-05T10:40:40.682Z,34.94
2023-05-05T10:41:40.652Z,34.53
2023-05-05T10:42:40.664Z,34.42
2023-05-05T10:43:40.685Z,35.04
2023-05-05T10:44:40.633Z,34.48
2023-05-05T10:45:40.803Z,34.88
2023-05-05T10:46:40.833Z,34.88
2023-05-05T10:47:40.690Z,35.17
2023-05-05T10:48:40.780Z,35.15
2023-05-05T10:49:40.689Z,34.65
2023-05-05T10:50:40.847Z,34.14
2023-05-05T10:51:41.304Z,33.86
2023-05-05T10:52:40.833Z,34.41
2023-05-05T10:53:40.842Z,35.19
2023-05-05T10:54:40.899Z,34.01
2023-05-05T10:55:40.989Z,33.78
2023-05-05T10:56:40.991Z,33.42
2023-05-05T10:57:41.068Z,33.76
2023-05-05T10:58:58.377Z,33.87
2023-05-05T10:59:42.074Z,35.12
2023-05-05T11:00:41.096Z,34.28
2023-05-05T11:01:41.064Z,34.97
2023-05-05T11:02:41.100Z,34.37
2023-05-05T11:03:41.146Z,34.18
2023-05-05T11:04:41.031Z,33.87
2023-05-05T11:05:41.041Z,39.63
2023-05-05T11:06:41.095Z,34.13
2023-05-05T11:07:41.021Z,33.24
2023-05-05T11:08:41.003Z,32.98
2023-05-05T11:09:41.041Z,32.76
2023-05-05T11:10:41.011Z,32.97
2023-05-05T11:11:41.019Z,34.45
2023-05-05T11:12:40.978Z,33.34
2023-05-05T11:13:41.018Z,33.64
2023-05-05T11:14:41.058Z,33.33
2023-05-05T11:15:41.014Z,33.57
2023-05-05T11:16:41.082Z,33.76
2023-05-05T11:17:41.146Z,34.03
2023-05-05T11:18:41.083Z,33.85
2023-05-05T11:19:41.075Z,33.98
2023-05-05T11:20:41.084Z,34.16
2023-05-05T11:21:41.082Z,34.23
2023-05-05T11:22:41.124Z,34.38
2023-05-05T11:23:41.133Z,34.63
2023-05-05T11:24:41.125Z,34.66
2023-05-05T11:25:41.327Z,34.76
2023-05-05T11:26:41.156Z,34.82
2023-05-05T11:27:41.162Z,34.99
2023-05-05T11:28:41.759Z,35.23
2023-05-05T11:29:41.235Z,35.83
2023-05-05T11:30:41.336Z,35.33
2023-05-05T11:31:41.586Z,35.54
2023-05-05T11:32:41.406Z,35.31
2023-05-05T11:33:42.050Z,35.18
2023-05-05T11:34:41.338Z,35.13
2023-05-05T11:35:41.354Z,34.95
2023-05-05T11:36:41.346Z,34.80
2023-05-05T11:37:41.415Z,34.69
2023-05-05T11:38:41.503Z,34.57
2023-05-05T11:39:41.463Z,34.56
2023-05-05T11:40:41.473Z,34.40
2023-05-05T11:41:41.485Z,34.45
2023-05-05T11:42:41.500Z,34.34
2023-05-05T11:43:41.560Z,34.31
2023-05-05T11:44:41.590Z,34.26
2023-05-05T11:45:41.646Z,34.00
2023-05-05T11:46:41.780Z,33.81
2023-05-05T11:47:41.750Z,33.86
2023-05-05T11:48:41.778Z,33.78
2023-05-05T11:49:41.801Z,33.76
2023-05-05T11:50:41.862Z,33.79
2023-05-05T11:51:41.881Z,33.79
2023-05-05T11:52:41.929Z,33.69
2023-05-05T11:53:42.005Z,33.60
2023-05-05T11:54:42.124Z,33.67
2023-05-05T11:55:42.131Z,33.62
2023-05-05T11:56:42.133Z,33.65
2023-05-05T11:57:42.194Z,33.68
2023-05-05T11:58:42.243Z,33.74
2023-05-05T11:59:42.329Z,33.84
2023-05-05T12:00:42.357Z,33.79
2023-05-05T12:01:42.442Z,33.71
2023-05-05T12:02:42.561Z,33.67
2023-05-05T12:03:42.573Z,33.67
2023-05-05T12:04:43.338Z,33.67
2023-05-05T12:05:42.735Z,33.64
2023-05-05T12:06:42.670Z,33.60
2023-05-05T12:07:42.708Z,33.56
2023-05-05T12:08:42.775Z,33.47
2023-05-05T12:09:42.829Z,33.45
2023-05-05T12:10:42.904Z,33.29
2023-05-05T12:11:42.908Z,33.21
2023-05-05T12:12:42.992Z,33.12
2023-05-05T12:13:43.007Z,33.06
2023-05-05T12:14:43.033Z,32.95
2023-05-05T12:15:43.102Z,32.95
2023-05-05T12:16:43.187Z,32.93
2023-05-05T12:17:43.236Z,33.03
2023-05-05T12:18:43.204Z,32.97
2023-05-05T12:19:43.275Z,32.95
2023-05-05T12:20:43.319Z,32.86
2023-05-05T12:21:43.384Z,32.69
2023-05-05T12:22:43.402Z,32.75
2023-05-05T12:23:43.473Z,32.75
2023-05-05T12:24:43.476Z,32.75
2023-05-05T12:25:43.524Z,32.80
2023-05-05T12:26:43.665Z,32.86
2023-05-05T12:27:43.611Z,32.92
2023-05-05T12:28:43.640Z,32.89
2023-05-05T12:29:43.694Z,32.76
2023-05-05T12:30:43.839Z,32.78
2023-05-05T12:31:43.801Z,32.69
2023-05-05T12:32:43.961Z,32.67
2023-05-05T12:33:43.842Z,32.59
2023-05-05T12:34:43.884Z,32.57
2023-05-05T12:35:43.966Z,32.70
2023-05-05T12:36:44.014Z,32.62
2023-05-05T12:37:44.081Z,32.51
2023-05-05T12:38:44.098Z,32.41
2023-05-05T12:39:44.144Z,32.34
2023-05-05T12:40:44.206Z,32.26
2023-05-05T12:41:44.251Z,32.17
2023-05-05T12:42:46.296Z,32.11
2023-05-05T12:43:44.378Z,32.03
2023-05-05T12:44:44.450Z,31.99
2023-05-05T12:45:44.507Z,31.98
2023-05-05T12:46:44.528Z,31.97
2023-05-05T12:47:44.571Z,32.01
2023-05-05T12:48:47.967Z,31.96
2023-05-05T12:49:44.634Z,32.03
2023-05-05T12:50:44.594Z,32.08
2023-05-05T12:51:44.563Z,32.11
2023-05-05T12:52:44.578Z,32.86